Time;durP1;ratioP1;P1;durP2;ratioP2;P2;SDS_P1;SDS_P2;PMS_P1;PMS_P2;Temp;Humidity;BMP_temperature;BMP_pressure;BME280_temperature;BME280_humidity;BME280_pressure;Samples;Min_cycle;Max_cycle;Signal;HPM_P1;HPM_P2
2023/08/06 00:02:02;;;;;;;2.97;0.50;;;17.70;99.90;;;;;;4413622;32;20073;-77
2023/08/06 00:04:27;;;;;;;0.32;0.32;;;17.60;99.90;;;;;;4407308;32;20412;-78
2023/08/06 00:06:52;;;;;;;1.77;0.80;;;17.60;99.90;;;;;;4415155;32;20279;-77
2023/08/06 00:09:18;;;;;;;1.17;1.08;;;17.60;99.90;;;;;;4414103;32;20093;-76
2023/08/06 00:11:43;;;;;;;0.65;0.65;;;17.60;99.90;;;;;;4410732;32;20561;-78
2023/08/06 00:14:09;;;;;;;0.30;0.30;;;17.60;99.90;;;;;;4413557;32;20173;-76
2023/08/06 00:16:35;;;;;;;0.50;0.50;;;17.60;99.90;;;;;;4414175;32;20120;-76
2023/08/06 00:19:00;;;;;;;0.30;0.30;;;17.60;99.90;;;;;;4413673;32;20086;-76
2023/08/06 00:21:26;;;;;;;0.30;0.30;;;17.60;99.90;;;;;;4413449;32;20078;-76
2023/08/06 00:23:52;;;;;;;0.52;0.52;;;17.60;99.90;;;;;;4413620;32;20124;-76
2023/08/06 00:26:17;;;;;;;0.70;0.68;;;17.60;99.90;;;;;;4413832;32;20057;-77
2023/08/06 00:28:43;;;;;;;0.68;0.68;;;17.60;99.90;;;;;;4413163;32;20073;-76
2023/08/06 00:31:08;;;;;;;1.48;0.45;;;17.60;99.90;;;;;;4412434;32;20082;-77
2023/08/06 00:33:34;;;;;;;0.82;0.60;;;17.60;99.90;;;;;;4411721;32;20066;-76
2023/08/06 00:35:59;;;;;;;0.62;0.50;;;17.60;99.90;;;;;;4412941;32;20473;-77
2023/08/06 00:38:25;;;;;;;0.40;0.40;;;17.60;99.90;;;;;;4413478;32;20058;-77
2023/08/06 00:40:50;;;;;;;1.10;0.75;;;17.60;99.90;;;;;;4413814;32;20061;-77
2023/08/06 00:43:16;;;;;;;0.50;0.50;;;17.50;99.90;;;;;;4414318;32;20529;-77
2023/08/06 00:45:41;;;;;;;0.60;0.60;;;17.60;99.90;;;;;;4413443;32;20062;-78
2023/08/06 00:48:07;;;;;;;0.57;0.57;;;17.60;99.90;;;;;;4407272;32;20083;-77
2023/08/06 00:50:32;;;;;;;0.50;0.50;;;17.70;99.90;;;;;;4412437;32;20085;-77
2023/08/06 00:52:59;;;;;;;0.62;0.40;;;17.60;99.90;;;;;;4413322;32;20073;-76
2023/08/06 00:55:25;;;;;;;0.50;0.50;;;17.60;99.90;;;;;;4413622;32;20432;-76
2023/08/06 00:57:52;;;;;;;0.30;0.30;;;17.60;99.90;;;;;;4411536;32;20066;-76
2023/08/06 01:00:19;;;;;;;0.47;0.47;;;17.60;99.90;;;;;;4408858;32;20074;-76
2023/08/06 01:02:45;;;;;;;1.35;0.65;;;17.60;99.90;;;;;;4412651;32;20373;-77
2023/08/06 01:05:11;;;;;;;0.45;0.45;;;17.50;99.90;;;;;;4413663;32;20074;-77
2023/08/06 01:08:05;;;;;;;0.55;0.55;;;17.50;99.90;;;;;;4413025;32;20062;-77
2023/08/06 01:10:47;;;;;;;2.28;1.27;;;17.50;99.90;;;;;;4412809;32;20530;-77
2023/08/06 01:13:37;;;;;;;0.40;0.40;;;17.50;99.90;;;;;;4413014;32;20177;-77
2023/08/06 01:16:05;;;;;;;0.77;0.60;;;17.40;99.90;;;;;;4402316;32;20664;-76
2023/08/06 01:18:31;;;;;;;0.70;0.65;;;17.40;99.90;;;;;;4413379;32;20157;-78
2023/08/06 01:20:56;;;;;;;1.23;1.10;;;17.40;99.90;;;;;;4412794;32;20585;-77
2023/08/06 01:23:23;;;;;;;0.40;0.40;;;17.30;99.90;;;;;;4413606;32;20498;-76
2023/08/06 01:25:57;;;;;;;0.70;0.70;;;17.40;99.90;;;;;;4413307;32;20490;-76
2023/08/06 01:28:28;;;;;;;0.50;0.50;;;17.30;99.90;;;;;;4412680;32;20069;-76
2023/08/06 01:30:59;;;;;;;0.50;0.50;;;17.40;99.90;;;;;;4408743;32;20735;-78
2023/08/06 01:33:27;;;;;;;0.40;0.40;;;17.40;99.90;;;;;;4401049;32;20120;-76
2023/08/06 01:35:54;;;;;;;2.28;0.50;;;17.30;99.90;;;;;;4411018;32;20069;-77
2023/08/06 01:38:20;;;;;;;0.30;0.30;;;17.30;99.90;;;;;;4412736;32;20541;-77
2023/08/06 01:40:45;;;;;;;0.65;0.55;;;17.20;99.90;;;;;;4401161;32;20116;-77
2023/08/06 01:43:11;;;;;;;1.40;0.62;;;17.20;99.90;;;;;;4411539;32;20069;-77
2023/08/06 01:45:36;;;;;;;0.52;0.52;;;17.20;99.90;;;;;;4413108;32;20066;-78
2023/08/06 01:48:02;;;;;;;0.43;0.43;;;17.30;99.90;;;;;;4413719;32;20405;-76
2023/08/06 01:50:27;;;;;;;0.45;0.45;;;17.20;99.90;;;;;;4413965;32;20091;-77
2023/08/06 01:52:53;;;;;;;1.30;0.80;;;17.20;99.90;;;;;;4412999;32;20545;-77
2023/08/06 01:55:18;;;;;;;2.58;0.50;;;17.20;99.90;;;;;;4412565;32;20139;-78
2023/08/06 01:57:44;;;;;;;0.88;0.57;;;17.10;99.90;;;;;;4402122;32;20124;-77
2023/08/06 02:00:10;;;;;;;0.50;0.50;;;17.10;99.90;;;;;;4408087;32;20499;-77
2023/08/06 02:02:36;;;;;;;1.52;0.80;;;17.10;99.90;;;;;;4412059;32;20070;-76
2023/08/06 02:05:01;;;;;;;0.70;0.70;;;17.10;99.90;;;;;;4412993;32;20109;-77
2023/08/06 02:07:27;;;;;;;0.40;0.40;;;17.10;99.90;;;;;;4413680;32;20089;-77
2023/08/06 02:09:52;;;;;;;0.35;0.35;;;17.00;99.90;;;;;;4412088;32;20557;-76
2023/08/06 02:12:18;;;;;;;2.65;0.68;;;17.00;99.90;;;;;;4414505;32;20074;-76
2023/08/06 02:14:43;;;;;;;0.50;0.50;;;17.10;99.90;;;;;;4413148;32;20117;-77
2023/08/06 02:17:09;;;;;;;0.30;0.30;;;17.00;99.90;;;;;;4413639;32;20066;-77
2023/08/06 02:19:34;;;;;;;0.80;0.80;;;16.90;99.90;;;;;;4413200;32;20473;-76
2023/08/06 02:22:00;;;;;;;0.55;0.55;;;16.90;99.90;;;;;;4406345;32;20071;-76
2023/08/06 02:24:25;;;;;;;0.40;0.40;;;16.90;99.90;;;;;;4408553;32;20137;-76
2023/08/06 02:26:51;;;;;;;0.50;0.50;;;16.90;99.90;;;;;;4410858;32;20082;-77
2023/08/06 02:29:17;;;;;;;0.30;0.30;;;16.90;99.90;;;;;;4414704;32;20062;-78
2023/08/06 02:31:42;;;;;;;0.50;0.50;;;16.90;99.90;;;;;;4415077;32;20085;-77
2023/08/06 02:34:08;;;;;;;0.43;0.43;;;16.90;99.90;;;;;;4411212;32;20061;-76
2023/08/06 02:36:33;;;;;;;0.40;0.40;;;16.80;99.90;;;;;;4411310;32;20082;-77
2023/08/06 02:38:59;;;;;;;0.50;0.50;;;16.80;99.90;;;;;;4416115;32;20125;-76
2023/08/06 02:41:24;;;;;;;0.50;0.50;;;16.80;99.90;;;;;;4415003;32;20074;-76
2023/08/06 02:43:50;;;;;;;0.40;0.40;;;16.90;99.90;;;;;;4414653;32;20518;-76
2023/08/06 02:46:15;;;;;;;0.60;0.60;;;16.80;99.90;;;;;;4414812;32;20078;-76
2023/08/06 02:48:41;;;;;;;0.75;0.60;;;16.80;99.90;;;;;;4414693;32;20073;-76
2023/08/06 02:51:06;;;;;;;1.15;0.75;;;16.80;99.90;;;;;;4413522;32;20062;-77
2023/08/06 02:53:32;;;;;;;0.30;0.30;;;16.80;99.90;;;;;;4412581;32;20514;-77
2023/08/06 02:55:58;;;;;;;0.60;0.60;;;16.70;99.90;;;;;;4413694;32;20521;-77
2023/08/06 02:58:24;;;;;;;0.43;0.43;;;16.70;99.90;;;;;;4409299;32;20071;-76
2023/08/06 03:01:06;;;;;;;0.82;0.73;;;16.70;99.90;;;;;;4414833;32;20070;-77
2023/08/06 03:03:32;;;;;;;1.02;0.73;;;16.70;99.90;;;;;;4415432;32;20098;-77
2023/08/06 03:05:58;;;;;;;0.40;0.40;;;16.70;99.90;;;;;;4413233;32;20059;-77
2023/08/06 03:08:24;;;;;;;0.70;0.62;;;16.70;99.90;;;;;;4415409;32;20082;-76
2023/08/06 03:10:50;;;;;;;0.30;0.30;;;16.70;99.90;;;;;;4414109;32;20065;-78
2023/08/06 03:13:16;;;;;;;0.80;0.47;;;16.70;99.90;;;;;;4413927;32;20072;-76
2023/08/06 03:15:42;;;;;;;0.57;0.57;;;16.60;99.90;;;;;;4415055;32;20125;-78
2023/08/06 03:18:07;;;;;;;0.90;0.50;;;16.60;99.90;;;;;;4415525;32;20082;-77
2023/08/06 03:20:33;;;;;;;1.08;0.98;;;16.60;99.90;;;;;;4415251;32;20104;-77
2023/08/06 03:22:58;;;;;;;0.37;0.37;;;16.60;99.90;;;;;;4414109;32;20086;-75
2023/08/06 03:25:24;;;;;;;0.50;0.50;;;16.60;99.90;;;;;;4410795;32;20101;-77
2023/08/06 03:27:49;;;;;;;0.85;0.77;;;16.60;99.90;;;;;;4401300;32;20069;-76
2023/08/06 03:30:15;;;;;;;0.32;0.32;;;16.60;99.90;;;;;;4402412;32;20505;-75
2023/08/06 03:32:40;;;;;;;0.43;0.43;;;16.50;99.90;;;;;;4414403;32;20120;-76
2023/08/06 03:35:06;;;;;;;2.17;1.48;;;16.50;99.90;;;;;;4413860;32;20480;-75
2023/08/06 03:37:32;;;;;;;0.50;0.50;;;16.50;99.90;;;;;;4414370;32;20090;-77
2023/08/06 03:39:57;;;;;;;0.45;0.45;;;16.40;99.90;;;;;;4414979;32;20165;-76
2023/08/06 03:42:23;;;;;;;0.40;0.40;;;16.40;99.90;;;;;;4414350;32;20073;-76
2023/08/06 03:44:48;;;;;;;0.30;0.30;;;16.40;99.90;;;;;;4413913;32;20073;-78
2023/08/06 03:47:14;;;;;;;0.37;0.37;;;16.40;99.90;;;;;;4413684;32;20117;-76
2023/08/06 03:49:39;;;;;;;0.50;0.50;;;16.40;99.90;;;;;;4413919;32;20073;-75
2023/08/06 03:52:05;;;;;;;0.80;0.60;;;16.40;99.90;;;;;;4414744;32;20178;-78
2023/08/06 03:54:31;;;;;;;0.50;0.50;;;16.40;99.90;;;;;;4403868;32;20553;-77
2023/08/06 03:56:56;;;;;;;9.95;0.50;;;16.30;99.90;;;;;;4411782;32;20069;-76
2023/08/06 03:59:22;;;;;;;0.30;0.30;;;16.40;99.90;;;;;;4414244;32;20062;-76
2023/08/06 04:01:47;;;;;;;0.30;0.30;;;16.40;99.90;;;;;;4412170;32;20073;-75
2023/08/06 04:04:13;;;;;;;0.68;0.50;;;16.50;99.90;;;;;;4414624;32;20151;-76
2023/08/06 04:06:38;;;;;;;1.10;0.75;;;16.40;99.90;;;;;;4413886;32;20161;-76
2023/08/06 04:09:04;;;;;;;0.50;0.50;;;16.40;99.90;;;;;;4413259;32;20086;-76
2023/08/06 04:11:29;;;;;;;0.70;0.68;;;16.40;99.90;;;;;;4412287;32;20077;-76
2023/08/06 04:13:55;;;;;;;0.52;0.52;;;16.30;99.90;;;;;;4409885;32;20062;-76
2023/08/06 04:16:21;;;;;;;0.40;0.40;;;16.30;99.90;;;;;;4414114;32;20112;-75
2023/08/06 04:18:47;;;;;;;0.40;0.40;;;16.30;99.90;;;;;;4414475;32;20413;-75
2023/08/06 04:21:12;;;;;;;0.32;0.32;;;16.30;99.90;;;;;;4411908;32;20077;-76
2023/08/06 04:23:38;;;;;;;0.73;0.73;;;16.20;99.90;;;;;;4403405;32;20070;-77
2023/08/06 04:26:03;;;;;;;0.50;0.50;;;16.30;99.90;;;;;;4413209;32;20452;-75
2023/08/06 04:28:29;;;;;;;0.30;0.30;;;16.20;99.90;;;;;;4414239;32;20086;-75
2023/08/06 04:30:55;;;;;;;0.50;0.50;;;16.20;99.90;;;;;;4414588;32;20112;-76
2023/08/06 04:33:20;;;;;;;0.82;0.47;;;16.20;99.90;;;;;;4412210;32;20475;-75
2023/08/06 04:35:46;;;;;;;0.70;0.70;;;16.20;99.90;;;;;;4414456;32;20081;-77
2023/08/06 04:38:11;;;;;;;0.45;0.45;;;16.20;99.90;;;;;;4415372;32;20116;-76
2023/08/06 04:40:37;;;;;;;1.10;0.40;;;16.20;99.90;;;;;;4415274;32;20066;-76
2023/08/06 04:43:02;;;;;;;0.70;0.70;;;16.30;99.90;;;;;;4415178;32;20099;-76
2023/08/06 04:45:28;;;;;;;0.60;0.50;;;16.30;99.90;;;;;;4414568;32;20121;-75
2023/08/06 04:47:54;;;;;;;3.90;0.88;;;16.20;99.90;;;;;;4413952;32;20086;-75
2023/08/06 04:50:20;;;;;;;0.52;0.45;;;16.20;99.90;;;;;;4413745;32;20094;-75
2023/08/06 04:52:46;;;;;;;0.40;0.40;;;16.20;99.90;;;;;;4414443;32;20589;-77
2023/08/06 04:55:11;;;;;;;0.40;0.40;;;16.10;99.90;;;;;;4415735;32;20082;-77
2023/08/06 04:57:37;;;;;;;0.40;0.40;;;16.20;99.90;;;;;;4414596;32;20066;-76
2023/08/06 05:00:04;;;;;;;0.50;0.50;;;16.10;99.90;;;;;;4413877;32;20066;-76
2023/08/06 05:02:31;;;;;;;1.00;0.52;;;16.10;99.90;;;;;;4410565;32;20058;-76
2023/08/06 05:04:57;;;;;;;0.30;0.30;;;16.10;99.90;;;;;;4409850;32;20319;-77
2023/08/06 05:07:23;;;;;;;0.40;0.40;;;16.10;99.90;;;;;;4410031;32;20253;-76
2023/08/06 05:09:48;;;;;;;0.40;0.40;;;16.10;99.90;;;;;;4414388;32;20070;-76
2023/08/06 05:12:14;;;;;;;1.85;0.88;;;16.20;99.90;;;;;;4414237;32;20510;-76
2023/08/06 05:14:39;;;;;;;0.62;0.45;;;16.20;99.90;;;;;;4411771;32;20129;-76
2023/08/06 05:17:05;;;;;;;0.95;0.80;;;16.20;99.90;;;;;;4415786;32;20082;-76
2023/08/06 05:19:30;;;;;;;0.40;0.40;;;16.20;99.90;;;;;;4413635;32;20120;-75
2023/08/06 05:21:56;;;;;;;0.68;0.57;;;16.20;99.90;;;;;;4414398;32;20086;-76
2023/08/06 05:24:21;;;;;;;0.65;0.40;;;16.30;99.90;;;;;;4418747;32;20066;-76
2023/08/06 05:26:47;;;;;;;0.65;0.55;;;16.30;99.90;;;;;;4417810;32;20074;-76
2023/08/06 05:29:13;;;;;;;0.30;0.30;;;16.40;99.90;;;;;;4416914;32;20061;-76
2023/08/06 05:31:38;;;;;;;0.30;0.30;;;16.40;99.90;;;;;;4417301;32;20061;-76
2023/08/06 05:34:04;;;;;;;0.40;0.40;;;16.40;99.90;;;;;;4417467;32;20084;-76
2023/08/06 05:36:29;;;;;;;0.40;0.40;;;16.30;99.90;;;;;;4416382;32;20070;-76
2023/08/06 05:38:55;;;;;;;8.93;0.65;;;16.30;99.90;;;;;;4414211;32;20065;-75
2023/08/06 05:41:20;;;;;;;0.62;0.60;;;16.20;99.90;;;;;;4399569;32;20079;-75
2023/08/06 05:43:46;;;;;;;0.50;0.50;;;16.40;99.90;;;;;;4414021;32;20073;-76
2023/08/06 05:46:11;;;;;;;1.12;1.02;;;16.30;99.90;;;;;;4403927;32;20082;-75
2023/08/06 05:48:37;;;;;;;0.95;0.60;;;16.30;99.90;;;;;;4411978;32;20069;-75
2023/08/06 05:51:02;;;;;;;1.33;0.57;;;16.30;99.90;;;;;;4418306;32;20073;-76
2023/08/06 05:53:28;;;;;;;0.30;0.30;;;16.20;99.90;;;;;;4417391;32;20069;-76
2023/08/06 05:55:53;;;;;;;0.70;0.70;;;16.30;99.90;;;;;;4417356;32;20069;-77
2023/08/06 05:58:20;;;;;;;0.40;0.40;;;16.20;99.90;;;;;;4418211;32;20090;-76
2023/08/06 06:00:45;;;;;;;0.35;0.35;;;16.30;99.90;;;;;;4418594;32;20077;-75
2023/08/06 06:03:11;;;;;;;0.85;0.60;;;16.20;99.90;;;;;;4417016;32;20070;-76
2023/08/06 06:05:38;;;;;;;0.30;0.30;;;16.20;99.90;;;;;;4418047;32;20066;-75
2023/08/06 06:08:04;;;;;;;0.90;0.50;;;16.20;99.90;;;;;;4418821;32;20073;-76
2023/08/06 06:10:29;;;;;;;1.10;0.90;;;16.30;99.90;;;;;;4416668;32;20521;-76
2023/08/06 06:12:55;;;;;;;0.80;0.40;;;16.40;99.90;;;;;;4411950;32;20070;-77
2023/08/06 06:15:20;;;;;;;0.43;0.43;;;16.40;99.90;;;;;;4415335;32;20610;-76
2023/08/06 06:17:46;;;;;;;3.20;0.73;;;16.40;99.90;;;;;;4409459;32;20090;-76
2023/08/06 06:20:11;;;;;;;1.02;0.75;;;16.50;99.90;;;;;;4414837;32;20062;-76
2023/08/06 06:22:37;;;;;;;0.40;0.40;;;16.60;99.90;;;;;;4415112;32;20098;-76
2023/08/06 06:25:02;;;;;;;0.32;0.32;;;16.60;99.90;;;;;;4414519;32;20062;-76
2023/08/06 06:27:28;;;;;;;0.57;0.57;;;16.70;99.90;;;;;;4414934;32;20130;-76
2023/08/06 06:29:54;;;;;;;0.50;0.50;;;16.70;99.90;;;;;;4414660;32;20124;-76
2023/08/06 06:32:20;;;;;;;0.40;0.40;;;16.70;99.90;;;;;;4414131;32;20070;-77
2023/08/06 06:34:46;;;;;;;0.50;0.50;;;16.80;99.90;;;;;;4414528;32;20174;-76
2023/08/06 06:37:11;;;;;;;0.88;0.45;;;16.90;99.90;;;;;;4414292;32;20522;-76
2023/08/06 06:39:36;;;;;;;0.40;0.40;;;16.90;99.90;;;;;;4412536;32;20539;-76
2023/08/06 06:42:02;;;;;;;0.52;0.50;;;16.80;99.90;;;;;;4411662;32;20077;-76
2023/08/06 06:44:27;;;;;;;0.52;0.50;;;16.80;99.90;;;;;;4414790;32;20061;-76
2023/08/06 06:46:53;;;;;;;0.80;0.50;;;16.80;99.90;;;;;;4411573;32;20130;-76
2023/08/06 06:49:18;;;;;;;0.40;0.40;;;16.70;99.90;;;;;;4403239;32;20416;-77
2023/08/06 06:51:44;;;;;;;0.70;0.70;;;16.80;99.90;;;;;;4415326;32;20061;-76
2023/08/06 06:54:09;;;;;;;0.40;0.40;;;16.90;99.90;;;;;;4415123;32;20078;-76
2023/08/06 06:56:35;;;;;;;0.40;0.40;;;17.00;99.90;;;;;;4412154;32;20073;-76
2023/08/06 06:59:00;;;;;;;0.40;0.40;;;17.00;99.90;;;;;;4399351;32;20562;-75
2023/08/06 07:01:26;;;;;;;0.40;0.40;;;17.00;99.90;;;;;;4403408;32;20074;-75
2023/08/06 07:03:51;;;;;;;0.30;0.30;;;17.00;99.90;;;;;;4414921;32;20649;-76
2023/08/06 07:06:18;;;;;;;0.62;0.62;;;17.10;99.90;;;;;;4414889;32;20065;-75
2023/08/06 07:08:44;;;;;;;0.52;0.50;;;17.10;99.90;;;;;;4414657;32;20072;-75
2023/08/06 07:11:09;;;;;;;1.25;0.40;;;17.10;99.90;;;;;;4407899;32;20070;-76
2023/08/06 07:13:35;;;;;;;0.30;0.30;;;17.10;99.90;;;;;;4414879;32;20117;-76
2023/08/06 07:16:00;;;;;;;0.50;0.50;;;17.10;99.90;;;;;;4416808;32;20121;-76
2023/08/06 07:18:26;;;;;;;0.75;0.75;;;17.00;99.90;;;;;;4415655;32;20122;-77
2023/08/06 07:20:53;;;;;;;1.02;0.60;;;17.00;99.90;;;;;;4415006;32;20057;-76
2023/08/06 07:23:21;;;;;;;0.68;0.50;;;17.00;99.90;;;;;;4416983;32;20062;-76
2023/08/06 07:25:47;;;;;;;0.37;0.37;;;17.00;99.90;;;;;;4417101;32;20552;-76
2023/08/06 07:28:13;;;;;;;1.30;0.82;;;17.10;99.90;;;;;;4415194;32;20113;-75
2023/08/06 07:30:40;;;;;;;0.30;0.30;;;17.10;99.90;;;;;;4400269;32;20077;-77
2023/08/06 07:33:06;;;;;;;7.15;0.60;;;17.10;99.90;;;;;;4399479;32;20121;-76
2023/08/06 07:35:31;;;;;;;1.10;0.60;;;17.00;99.90;;;;;;4399077;32;20075;-76
2023/08/06 07:37:57;;;;;;;0.30;0.30;;;16.90;99.90;;;;;;4399906;32;20067;-76
2023/08/06 07:40:22;;;;;;;0.35;0.35;;;16.90;99.90;;;;;;4399336;32;20069;-76
2023/08/06 07:42:48;;;;;;;0.30;0.30;;;17.00;99.90;;;;;;4405579;32;20090;-77
2023/08/06 07:45:14;;;;;;;6.43;0.93;;;17.10;99.90;;;;;;4414718;32;20087;-76
2023/08/06 07:47:40;;;;;;;0.50;0.50;;;17.00;99.90;;;;;;4414814;32;20086;-76
2023/08/06 07:50:06;;;;;;;0.30;0.30;;;17.00;99.90;;;;;;4414553;32;20501;-76
2023/08/06 07:52:31;;;;;;;0.30;0.30;;;17.00;99.90;;;;;;4405377;32;20443;-77
2023/08/06 07:54:57;;;;;;;0.30;0.30;;;16.90;99.90;;;;;;4414664;32;20090;-77
2023/08/06 07:57:22;;;;;;;0.50;0.50;;;17.00;99.90;;;;;;4403691;32;20069;-76
2023/08/06 07:59:48;;;;;;;0.30;0.30;;;17.10;99.90;;;;;;4414497;32;20074;-76
2023/08/06 08:02:13;;;;;;;0.47;0.47;;;17.20;99.90;;;;;;4414334;32;20110;-77
2023/08/06 08:04:39;;;;;;;0.50;0.50;;;17.30;99.90;;;;;;4414510;32;20081;-76
2023/08/06 08:07:09;;;;;;;0.40;0.40;;;17.30;99.90;;;;;;4414566;32;20062;-76
2023/08/06 08:09:35;;;;;;;;;;;17.30;99.90;;;;;;4413919;32;20077;-76
2023/08/06 08:12:02;;;;;;;0.30;0.30;;;17.40;99.90;;;;;;4414782;32;20381;-77
2023/08/06 08:14:28;;;;;;;0.28;0.28;;;17.40;99.90;;;;;;4413522;32;20062;-76
2023/08/06 08:16:54;;;;;;;0.50;0.50;;;17.30;99.90;;;;;;4414308;32;20090;-76
2023/08/06 08:19:21;;;;;;;0.40;0.40;;;17.20;99.90;;;;;;4413657;32;20057;-76
2023/08/06 08:21:46;;;;;;;0.50;0.50;;;17.20;99.90;;;;;;4414072;32;20074;-76
2023/08/06 08:24:12;;;;;;;8.50;0.68;;;17.30;99.90;;;;;;4413682;32;20062;-76
2023/08/06 08:26:37;;;;;;;0.50;0.50;;;17.30;99.90;;;;;;4413784;32;20395;-76
2023/08/06 08:29:03;;;;;;;0.65;0.60;;;17.40;99.90;;;;;;4413659;32;20108;-76
2023/08/06 08:31:29;;;;;;;0.30;0.30;;;17.40;99.90;;;;;;4413214;32;20090;-77
2023/08/06 08:33:55;;;;;;;0.30;0.30;;;17.50;99.90;;;;;;4413277;32;20129;-76
2023/08/06 08:36:20;;;;;;;0.30;0.30;;;17.50;99.90;;;;;;4413334;32;20069;-76
2023/08/06 08:38:46;;;;;;;0.40;0.40;;;17.60;99.90;;;;;;4413556;32;20131;-76
2023/08/06 08:41:12;;;;;;;20.85;0.77;;;17.60;99.90;;;;;;4414113;32;20083;-77
2023/08/06 08:43:40;;;;;;;0.45;0.45;;;17.70;99.90;;;;;;4414042;32;20086;-76
2023/08/06 08:46:07;;;;;;;0.40;0.40;;;17.70;99.90;;;;;;4407229;32;20057;-76
2023/08/06 08:48:32;;;;;;;0.37;0.37;;;17.70;99.90;;;;;;4412288;32;20082;-76
2023/08/06 08:50:58;;;;;;;0.30;0.30;;;17.70;99.90;;;;;;4416738;32;20469;-76
2023/08/06 08:53:26;;;;;;;0.40;0.40;;;17.70;99.90;;;;;;4417135;32;20104;-76
2023/08/06 08:55:53;;;;;;;0.50;0.50;;;17.80;99.90;;;;;;4415917;32;20173;-75
2023/08/06 08:58:18;;;;;;;0.70;0.40;;;17.70;99.90;;;;;;4418347;32;20073;-76
2023/08/06 09:00:48;;;;;;;1.08;0.73;;;17.70;99.90;;;;;;4413292;32;20116;-76
2023/08/06 09:03:14;;;;;;;0.47;0.40;;;17.60;99.90;;;;;;4414185;32;20435;-77
2023/08/06 09:05:43;;;;;;;0.30;0.30;;;17.60;99.90;;;;;;4414120;32;20058;-76
2023/08/06 09:08:14;;;;;;;0.33;0.33;;;17.60;99.90;;;;;;4414634;32;20103;-77
2023/08/06 09:10:41;;;;;;;1.27;0.65;;;17.70;99.90;;;;;;4414180;32;20054;-76
2023/08/06 09:13:08;;;;;;;0.30;0.30;;;17.70;99.90;;;;;;4412264;32;20416;-77
2023/08/06 09:15:34;;;;;;;1.05;0.50;;;17.70;99.90;;;;;;4413452;32;20098;-76
2023/08/06 09:17:59;;;;;;;0.40;0.40;;;17.70;99.90;;;;;;4415797;32;20522;-76
2023/08/06 09:20:25;;;;;;;0.47;0.47;;;17.70;99.90;;;;;;4414355;32;20069;-77
2023/08/06 09:22:53;;;;;;;0.40;0.40;;;17.70;99.90;;;;;;4413883;32;20137;-76
2023/08/06 09:25:24;;;;;;;0.57;0.50;;;17.80;99.90;;;;;;4415331;32;20075;-76
2023/08/06 09:27:50;;;;;;;0.40;0.40;;;17.90;99.90;;;;;;4412267;32;20584;-76
2023/08/06 09:30:30;;;;;;;0.40;0.40;;;17.90;99.90;;;;;;4413638;32;20078;-76
2023/08/06 09:32:55;;;;;;;0.70;0.70;;;17.90;99.90;;;;;;4416384;32;20135;-76
2023/08/06 09:35:21;;;;;;;0.52;0.52;;;17.80;99.90;;;;;;4417706;32;20066;-75
2023/08/06 09:37:47;;;;;;;0.50;0.50;;;17.90;99.90;;;;;;4420799;32;20525;-76
2023/08/06 09:40:32;;;;;;;0.55;0.55;;;17.80;99.90;;;;;;4422804;32;20082;-76
2023/08/06 09:42:59;;;;;;;0.25;0.25;;;17.90;99.90;;;;;;4410564;32;20058;-76
2023/08/06 09:45:32;;;;;;;0.50;0.50;;;17.80;99.90;;;;;;4421410;32;20105;-76
2023/08/06 09:47:58;;;;;;;0.57;0.57;;;17.80;99.90;;;;;;4421446;32;20529;-76
2023/08/06 09:50:29;;;;;;;0.40;0.40;;;17.90;99.90;;;;;;4418401;32;20074;-77
2023/08/06 09:52:55;;;;;;;0.40;0.40;;;17.90;99.90;;;;;;4406538;32;20558;-76
2023/08/06 09:55:21;;;;;;;0.40;0.40;;;17.90;99.90;;;;;;4407514;32;20522;-75
2023/08/06 09:57:47;;;;;;;0.65;0.50;;;17.90;99.90;;;;;;4406702;32;20114;-76
2023/08/06 10:00:13;;;;;;;0.30;0.30;;;18.00;99.90;;;;;;4412138;32;20128;-74
2023/08/06 10:02:40;;;;;;;0.50;0.50;;;18.00;99.90;;;;;;4423759;32;20082;-75
2023/08/06 10:05:07;;;;;;;0.37;0.37;;;18.00;99.90;;;;;;4423909;32;20081;-76
2023/08/06 10:07:33;;;;;;;0.40;0.40;;;18.00;99.90;;;;;;4423760;32;20070;-75
2023/08/06 10:09:59;;;;;;;0.47;0.47;;;18.00;99.90;;;;;;4424550;32;20066;-76
2023/08/06 10:12:27;;;;;;;0.40;0.40;;;18.00;99.90;;;;;;4425560;32;20082;-77
2023/08/06 10:14:55;;;;;;;0.68;0.40;;;18.10;99.90;;;;;;4427338;32;20104;-74
2023/08/06 10:17:23;;;;;;;1.70;0.57;;;18.10;99.90;;;;;;4425821;32;20065;-75
2023/08/06 10:19:51;;;;;;;0.30;0.30;;;18.00;99.90;;;;;;4411774;32;20066;-75
2023/08/06 10:22:18;;;;;;;0.57;0.57;;;18.00;99.90;;;;;;4425935;32;20061;-75
2023/08/06 10:24:52;;;;;;;0.40;0.40;;;18.00;99.90;;;;;;4426790;32;20026;-75
2023/08/06 10:27:28;;;;;;;0.40;0.40;;;18.10;99.90;;;;;;4426924;32;20597;-75
2023/08/06 10:29:54;;;;;;;0.28;0.28;;;18.10;99.90;;;;;;4426592;32;20085;-75
2023/08/06 10:32:20;;;;;;;1.15;0.68;;;18.10;99.90;;;;;;4411569;32;20529;-76
2023/08/06 10:35:02;;;;;;;0.43;0.43;;;18.10;99.90;;;;;;4413149;32;20066;-75
2023/08/06 10:37:36;;;;;;;0.30;0.30;;;18.10;99.90;;;;;;4414974;32;20102;-75
2023/08/06 10:40:03;;;;;;;0.40;0.40;;;18.10;99.90;;;;;;4413131;32;20066;-75
2023/08/06 10:42:29;;;;;;;0.62;0.45;;;18.20;99.90;;;;;;4426174;32;20090;-76
2023/08/06 10:45:15;;;;;;;0.65;0.60;;;18.20;99.90;;;;;;4425835;32;20510;-76
2023/08/06 10:47:42;;;;;;;0.52;0.52;;;18.20;99.90;;;;;;4418256;32;20129;-75
2023/08/06 10:50:11;;;;;;;0.50;0.50;;;18.20;99.90;;;;;;4427448;32;20069;-75
2023/08/06 10:52:36;;;;;;;0.30;0.30;;;18.20;99.90;;;;;;4426098;32;20062;-76
2023/08/06 10:55:02;;;;;;;0.40;0.40;;;18.30;99.90;;;;;;4425340;32;20213;-76
2023/08/06 10:57:27;;;;;;;0.60;0.60;;;18.20;99.90;;;;;;4425494;32;20120;-75
2023/08/06 10:59:53;;;;;;;0.60;0.40;;;18.30;99.90;;;;;;4425033;32;20069;-75
2023/08/06 11:02:18;;;;;;;0.90;0.88;;;18.20;99.90;;;;;;4418208;32;20129;-75
2023/08/06 11:04:44;;;;;;;0.50;0.50;;;18.20;99.90;;;;;;4420700;32;20079;-76
2023/08/06 11:07:10;;;;;;;0.50;0.50;;;18.30;99.90;;;;;;4426618;32;20663;-76
2023/08/06 11:09:35;;;;;;;0.50;0.50;;;18.20;99.90;;;;;;4426355;32;20070;-75
2023/08/06 11:12:01;;;;;;;0.57;0.57;;;18.20;99.90;;;;;;4425108;32;20134;-75
2023/08/06 11:14:26;;;;;;;0.40;0.40;;;18.30;99.90;;;;;;4426004;32;20081;-75
2023/08/06 11:16:52;;;;;;;0.52;0.52;;;18.40;99.90;;;;;;4426178;32;20117;-75
2023/08/06 11:19:17;;;;;;;0.50;0.50;;;18.40;99.90;;;;;;4423383;32;20077;-75
2023/08/06 11:21:44;;;;;;;0.55;0.40;;;18.30;99.90;;;;;;4423943;32;20078;-75
2023/08/06 11:24:10;;;;;;;0.50;0.50;;;18.30;99.90;;;;;;4422883;32;20062;-75
2023/08/06 11:26:36;;;;;;;0.70;0.70;;;18.20;99.90;;;;;;4422591;32;20070;-75
2023/08/06 11:29:03;;;;;;;0.75;0.55;;;18.10;99.90;;;;;;4419304;32;20568;-74
2023/08/06 11:31:28;;;;;;;0.50;0.50;;;18.10;99.90;;;;;;4406009;32;20090;-75
2023/08/06 11:33:54;;;;;;;0.47;0.47;;;18.10;99.90;;;;;;4404616;32;20082;-75
2023/08/06 11:36:40;;;;;;;0.40;0.40;;;18.10;99.90;;;;;;4405364;32;20082;-77
2023/08/06 11:39:06;;;;;;;0.47;0.47;;;18.10;99.90;;;;;;4395199;32;20120;-75
2023/08/06 11:41:32;;;;;;;0.93;0.93;;;18.10;99.90;;;;;;4414715;32;20082;-75
2023/08/06 11:43:58;;;;;;;6.22;1.12;;;18.10;99.90;;;;;;4421568;32;20124;-75
2023/08/06 11:46:25;;;;;;;0.43;0.43;;;18.20;99.90;;;;;;4417804;32;86124;-74
2023/08/06 11:48:54;;;;;;;0.47;0.47;;;18.10;99.90;;;;;;4414755;32;20460;-76
2023/08/06 11:51:23;;;;;;;0.32;0.32;;;18.10;99.90;;;;;;4420089;32;20086;-75
2023/08/06 11:53:49;;;;;;;0.50;0.50;;;18.10;99.90;;;;;;4420094;32;20061;-75
2023/08/06 11:56:15;;;;;;;0.47;0.40;;;18.10;99.90;;;;;;4421750;32;20134;-75
2023/08/06 11:58:42;;;;;;;0.62;0.50;;;18.10;99.90;;;;;;4419710;32;20058;-75
2023/08/06 12:01:07;;;;;;;0.40;0.40;;;18.20;99.90;;;;;;4418850;32;20090;-77
2023/08/06 12:03:38;;;;;;;0.32;0.32;;;18.30;99.90;;;;;;4422112;32;20070;-76
2023/08/06 12:06:04;;;;;;;2.03;0.73;;;18.30;99.90;;;;;;4424082;32;20073;-76
2023/08/06 12:08:29;;;;;;;0.68;0.68;;;18.30;99.90;;;;;;4422850;32;20070;-76
2023/08/06 12:10:55;;;;;;;0.50;0.50;;;18.30;99.90;;;;;;4421951;32;20090;-76
2023/08/06 12:13:20;;;;;;;0.55;0.55;;;18.30;99.90;;;;;;4422088;32;20073;-76
2023/08/06 12:15:46;;;;;;;0.50;0.50;;;18.40;99.90;;;;;;4422481;32;20079;-75
2023/08/06 12:18:11;;;;;;;0.47;0.43;;;18.30;99.90;;;;;;4421517;32;20061;-76
2023/08/06 12:20:38;;;;;;;0.37;0.37;;;18.30;99.90;;;;;;4424420;32;20074;-76
2023/08/06 12:23:04;;;;;;;3.45;1.15;;;18.20;99.90;;;;;;4422622;32;20074;-75
2023/08/06 12:25:29;;;;;;;1.65;0.60;;;18.10;99.90;;;;;;4422801;32;20098;-77
2023/08/06 12:27:55;;;;;;;20.98;0.75;;;18.10;99.90;;;;;;4420412;32;20077;-76
2023/08/06 12:30:20;;;;;;;1.27;0.60;;;18.10;99.90;;;;;;4422413;32;20078;-76
2023/08/06 12:32:46;;;;;;;0.70;0.52;;;18.20;99.90;;;;;;4407814;32;20074;-77
2023/08/06 12:35:11;;;;;;;0.75;0.52;;;18.00;99.90;;;;;;4417328;32;20576;-76
2023/08/06 12:37:38;;;;;;;0.55;0.55;;;17.90;99.90;;;;;;4416041;32;20458;-77
2023/08/06 12:40:04;;;;;;;1.65;1.00;;;17.90;99.90;;;;;;4415395;32;20086;-76
2023/08/06 12:42:30;;;;;;;0.60;0.60;;;17.80;99.90;;;;;;4415925;32;20120;-76
2023/08/06 12:44:55;;;;;;;0.50;0.50;;;17.80;99.90;;;;;;4415695;32;20157;-77